sensor_id;sensor_type;location;lat;lon;timestamp;P1;durP1;ratioP1;P2;durP2;ratioP2
44440;SDS011;30146;52.268;20.944;2022-11-25T00:02:09;83.50;;;32.10;;
44440;SDS011;30146;52.268;20.944;2022-11-25T00:04:41;87.10;;;30.60;;
44440;SDS011;30146;52.268;20.944;2022-11-25T00:07:11;81.20;;;28.60;;
44440;SDS011;30146;52.268;20.944;2022-11-25T00:09:42;86.90;;;29.40;;
44440;SDS011;30146;52.268;20.944;2022-11-25T00:12:13;90.30;;;30.50;;
44440;SDS011;30146;52.268;20.944;2022-11-25T00:14:44;86.80;;;30.10;;
44440;SDS011;30146;52.268;20.944;2022-11-25T00:17:15;87.60;;;31.30;;
44440;SDS011;30146;52.268;20.944;2022-11-25T00:19:46;88.40;;;29.40;;
44440;SDS011;30146;52.268;20.944;2022-11-25T00:22:18;81.60;;;30.40;;
44440;SDS011;30146;52.268;20.944;2022-11-25T00:24:49;88.50;;;29.90;;
44440;SDS011;30146;52.268;20.944;2022-11-25T00:27:19;87.90;;;30.10;;
44440;SDS011;30146;52.268;20.944;2022-11-25T00:29:50;82.20;;;29.10;;
44440;SDS011;30146;52.268;20.944;2022-11-25T00:32:21;74.00;;;28.30;;
44440;SDS011;30146;52.268;20.944;2022-11-25T00:34:52;80.50;;;27.20;;
44440;SDS011;30146;52.268;20.944;2022-11-25T00:37:23;80.90;;;29.60;;
44440;SDS011;30146;52.268;20.944;2022-11-25T00:39:54;83.80;;;29.80;;
44440;SDS011;30146;52.268;20.944;2022-11-25T00:42:24;84.90;;;28.50;;
44440;SDS011;30146;52.268;20.944;2022-11-25T00:45:13;88.40;;;30.10;;
44440;SDS011;30146;52.268;20.944;2022-11-25T00:47:45;86.00;;;30.90;;
44440;SDS011;30146;52.268;20.944;2022-11-25T00:50:18;85.40;;;28.70;;
44440;SDS011;30146;52.268;20.944;2022-11-25T00:52:49;83.40;;;30.80;;
44440;SDS011;30146;52.268;20.944;2022-11-25T00:55:19;93.20;;;30.10;;
44440;SDS011;30146;52.268;20.944;2022-11-25T00:57:50;87.50;;;30.00;;
44440;SDS011;30146;52.268;20.944;2022-11-25T01:00:21;83.00;;;27.80;;
44440;SDS011;30146;52.268;20.944;2022-11-25T01:02:52;86.70;;;28.60;;
44440;SDS011;30146;52.268;20.944;2022-11-25T01:05:23;95.00;;;31.00;;
44440;SDS011;30146;52.268;20.944;2022-11-25T01:07:54;94.60;;;30.40;;
44440;SDS011;30146;52.268;20.944;2022-11-25T01:10:25;80.80;;;27.60;;
44440;SDS011;30146;52.268;20.944;2022-11-25T01:12:56;96.60;;;30.50;;
44440;SDS011;30146;52.268;20.944;2022-11-25T01:15:27;93.20;;;27.80;;
44440;SDS011;30146;52.268;20.944;2022-11-25T01:17:58;100.60;;;33.00;;
44440;SDS011;30146;52.268;20.944;2022-11-25T01:20:28;114.80;;;35.90;;
44440;SDS011;30146;52.268;20.944;2022-11-25T01:22:59;115.60;;;41.60;;
44440;SDS011;30146;52.268;20.944;2022-11-25T01:25:30;104.20;;;32.80;;
44440;SDS011;30146;52.268;20.944;2022-11-25T01:28:04;85.50;;;32.00;;
44440;SDS011;30146;52.268;20.944;2022-11-25T01:30:35;106.80;;;30.50;;
44440;SDS011;30146;52.268;20.944;2022-11-25T01:33:08;90.90;;;28.50;;
44440;SDS011;30146;52.268;20.944;2022-11-25T01:35:39;96.50;;;29.50;;
44440;SDS011;30146;52.268;20.944;2022-11-25T01:38:09;99.40;;;33.10;;
44440;SDS011;30146;52.268;20.944;2022-11-25T01:40:40;96.90;;;30.00;;
44440;SDS011;30146;52.268;20.944;2022-11-25T01:43:12;94.00;;;29.90;;
44440;SDS011;30146;52.268;20.944;2022-11-25T01:45:44;88.00;;;29.20;;
44440;SDS011;30146;52.268;20.944;2022-11-25T01:48:15;88.90;;;30.50;;
44440;SDS011;30146;52.268;20.944;2022-11-25T01:50:50;91.10;;;28.90;;
44440;SDS011;30146;52.268;20.944;2022-11-25T01:53:22;101.70;;;30.20;;
44440;SDS011;30146;52.268;20.944;2022-11-25T01:55:54;109.60;;;31.00;;
44440;SDS011;30146;52.268;20.944;2022-11-25T01:58:29;104.80;;;33.60;;
44440;SDS011;30146;52.268;20.944;2022-11-25T02:01:05;97.40;;;30.90;;
44440;SDS011;30146;52.268;20.944;2022-11-25T02:03:38;97.10;;;30.30;;
44440;SDS011;30146;52.268;20.944;2022-11-25T02:06:14;98.00;;;31.70;;
44440;SDS011;30146;52.268;20.944;2022-11-25T02:08:50;129.50;;;46.80;;
44440;SDS011;30146;52.268;20.944;2022-11-25T02:11:24;125.90;;;41.30;;
44440;SDS011;30146;52.268;20.944;2022-11-25T02:13:58;130.00;;;41.00;;
44440;SDS011;30146;52.268;20.944;2022-11-25T02:16:30;126.90;;;41.10;;
44440;SDS011;30146;52.268;20.944;2022-11-25T02:19:02;111.80;;;36.40;;
44440;SDS011;30146;52.268;20.944;2022-11-25T02:21:39;94.20;;;29.90;;
44440;SDS011;30146;52.268;20.944;2022-11-25T02:24:15;91.10;;;32.10;;
44440;SDS011;30146;52.268;20.944;2022-11-25T02:26:51;90.30;;;29.90;;
44440;SDS011;30146;52.268;20.944;2022-11-25T02:29:22;100.80;;;30.80;;
44440;SDS011;30146;52.268;20.944;2022-11-25T02:31:53;99.60;;;32.70;;
44440;SDS011;30146;52.268;20.944;2022-11-25T02:34:24;89.80;;;29.30;;
44440;SDS011;30146;52.268;20.944;2022-11-25T02:36:55;91.40;;;30.00;;
44440;SDS011;30146;52.268;20.944;2022-11-25T02:39:27;90.80;;;29.10;;
44440;SDS011;30146;52.268;20.944;2022-11-25T02:41:58;98.00;;;30.30;;
44440;SDS011;30146;52.268;20.944;2022-11-25T02:44:30;97.40;;;30.70;;
44440;SDS011;30146;52.268;20.944;2022-11-25T02:47:01;103.80;;;31.80;;
44440;SDS011;30146;52.268;20.944;2022-11-25T02:49:32;101.90;;;32.70;;
44440;SDS011;30146;52.268;20.944;2022-11-25T03:02:55;96.90;;;31.30;;
44440;SDS011;30146;52.268;20.944;2022-11-25T03:05:26;116.30;;;32.40;;
44440;SDS011;30146;52.268;20.944;2022-11-25T03:07:59;100.90;;;29.40;;
44440;SDS011;30146;52.268;20.944;2022-11-25T03:10:31;80.40;;;29.50;;
44440;SDS011;30146;52.268;20.944;2022-11-25T03:13:03;84.20;;;28.20;;
44440;SDS011;30146;52.268;20.944;2022-11-25T03:15:39;86.80;;;29.30;;
44440;SDS011;30146;52.268;20.944;2022-11-25T03:18:10;82.30;;;26.50;;
44440;SDS011;30146;52.268;20.944;2022-11-25T03:20:42;87.80;;;31.30;;
44440;SDS011;30146;52.268;20.944;2022-11-25T03:23:12;87.60;;;28.70;;
44440;SDS011;30146;52.268;20.944;2022-11-25T03:25:43;86.90;;;29.70;;
44440;SDS011;30146;52.268;20.944;2022-11-25T03:28:14;96.50;;;30.30;;
44440;SDS011;30146;52.268;20.944;2022-11-25T03:30:45;92.20;;;29.40;;
44440;SDS011;30146;52.268;20.944;2022-11-25T03:33:16;80.30;;;28.30;;
44440;SDS011;30146;52.268;20.944;2022-11-25T03:35:48;86.50;;;29.50;;
44440;SDS011;30146;52.268;20.944;2022-11-25T03:38:20;84.80;;;28.90;;
44440;SDS011;30146;52.268;20.944;2022-11-25T03:40:51;82.30;;;28.40;;
44440;SDS011;30146;52.268;20.944;2022-11-25T03:43:22;87.60;;;29.50;;
44440;SDS011;30146;52.268;20.944;2022-11-25T03:45:53;79.40;;;29.90;;
44440;SDS011;30146;52.268;20.944;2022-11-25T03:48:23;87.20;;;28.80;;
44440;SDS011;30146;52.268;20.944;2022-11-25T03:50:55;77.70;;;28.90;;
44440;SDS011;30146;52.268;20.944;2022-11-25T03:53:27;89.80;;;27.80;;
44440;SDS011;30146;52.268;20.944;2022-11-25T03:55:59;86.10;;;28.40;;
44440;SDS011;30146;52.268;20.944;2022-11-25T03:58:30;84.90;;;30.50;;
44440;SDS011;30146;52.268;20.944;2022-11-25T04:01:03;76.00;;;28.90;;
44440;SDS011;30146;52.268;20.944;2022-11-25T04:03:34;89.10;;;29.90;;
44440;SDS011;30146;52.268;20.944;2022-11-25T04:06:05;96.20;;;30.10;;
44440;SDS011;30146;52.268;20.944;2022-11-25T04:08:36;79.50;;;28.40;;
44440;SDS011;30146;52.268;20.944;2022-11-25T04:11:08;83.70;;;28.60;;
44440;SDS011;30146;52.268;20.944;2022-11-25T04:13:42;78.60;;;28.50;;
44440;SDS011;30146;52.268;20.944;2022-11-25T04:16:18;75.30;;;28.50;;
44440;SDS011;30146;52.268;20.944;2022-11-25T04:18:51;81.60;;;27.80;;
44440;SDS011;30146;52.268;20.944;2022-11-25T04:21:23;84.50;;;29.90;;
44440;SDS011;30146;52.268;20.944;2022-11-25T04:23:54;84.20;;;29.20;;
44440;SDS011;30146;52.268;20.944;2022-11-25T04:26:25;71.90;;;29.60;;
44440;SDS011;30146;52.268;20.944;2022-11-25T04:28:56;76.30;;;28.90;;
44440;SDS011;30146;52.268;20.944;2022-11-25T04:31:27;91.60;;;30.20;;
44440;SDS011;30146;52.268;20.944;2022-11-25T04:33:58;82.40;;;32.00;;
44440;SDS011;30146;52.268;20.944;2022-11-25T04:36:30;96.60;;;35.50;;
44440;SDS011;30146;52.268;20.944;2022-11-25T04:39:01;102.40;;;31.20;;
44440;SDS011;30146;52.268;20.944;2022-11-25T04:41:33;90.40;;;31.20;;
44440;SDS011;30146;52.268;20.944;2022-11-25T04:44:04;78.30;;;28.60;;
44440;SDS011;30146;52.268;20.944;2022-11-25T04:46:37;76.80;;;28.20;;
44440;SDS011;30146;52.268;20.944;2022-11-25T04:49:11;84.60;;;31.10;;
44440;SDS011;30146;52.268;20.944;2022-11-25T04:51:42;89.40;;;30.70;;
44440;SDS011;30146;52.268;20.944;2022-11-25T04:54:13;73.00;;;26.50;;
44440;SDS011;30146;52.268;20.944;2022-11-25T04:56:45;85.70;;;29.50;;
44440;SDS011;30146;52.268;20.944;2022-11-25T04:59:16;73.40;;;28.40;;
44440;SDS011;30146;52.268;20.944;2022-11-25T05:02:05;78.20;;;29.90;;
44440;SDS011;30146;52.268;20.944;2022-11-25T05:04:42;74.70;;;27.90;;
44440;SDS011;30146;52.268;20.944;2022-11-25T05:07:17;87.80;;;30.50;;
44440;SDS011;30146;52.268;20.944;2022-11-25T05:09:52;82.10;;;29.30;;
44440;SDS011;30146;52.268;20.944;2022-11-25T05:12:36;81.10;;;29.60;;
44440;SDS011;30146;52.268;20.944;2022-11-25T05:15:11;81.80;;;28.10;;
44440;SDS011;30146;52.268;20.944;2022-11-25T05:17:45;84.10;;;28.50;;
44440;SDS011;30146;52.268;20.944;2022-11-25T05:20:20;73.70;;;28.70;;
44440;SDS011;30146;52.268;20.944;2022-11-25T05:22:51;83.10;;;28.20;;
44440;SDS011;30146;52.268;20.944;2022-11-25T05:25:22;73.90;;;26.30;;
44440;SDS011;30146;52.268;20.944;2022-11-25T05:28:22;70.20;;;27.70;;
44440;SDS011;30146;52.268;20.944;2022-11-25T05:30:53;65.10;;;28.30;;
44440;SDS011;30146;52.268;20.944;2022-11-25T05:33:25;74.40;;;27.60;;
44440;SDS011;30146;52.268;20.944;2022-11-25T05:35:57;77.40;;;27.80;;
44440;SDS011;30146;52.268;20.944;2022-11-25T05:38:41;75.70;;;30.10;;
44440;SDS011;30146;52.268;20.944;2022-11-25T05:41:15;79.00;;;27.60;;
44440;SDS011;30146;52.268;20.944;2022-11-25T05:43:47;70.10;;;25.60;;
44440;SDS011;30146;52.268;20.944;2022-11-25T05:46:18;80.80;;;27.50;;
44440;SDS011;30146;52.268;20.944;2022-11-25T05:48:53;78.00;;;25.80;;
44440;SDS011;30146;52.268;20.944;2022-11-25T05:51:26;73.00;;;26.80;;
44440;SDS011;30146;52.268;20.944;2022-11-25T05:53:59;71.80;;;24.90;;
44440;SDS011;30146;52.268;20.944;2022-11-25T05:56:30;75.90;;;26.60;;
44440;SDS011;30146;52.268;20.944;2022-11-25T05:59:20;69.10;;;26.60;;
44440;SDS011;30146;52.268;20.944;2022-11-25T06:02:11;77.20;;;28.90;;
44440;SDS011;30146;52.268;20.944;2022-11-25T06:04:42;74.50;;;27.00;;
44440;SDS011;30146;52.268;20.944;2022-11-25T06:07:13;70.80;;;26.60;;
44440;SDS011;30146;52.268;20.944;2022-11-25T06:09:44;67.60;;;26.50;;
44440;SDS011;30146;52.268;20.944;2022-11-25T06:12:16;65.50;;;25.60;;
44440;SDS011;30146;52.268;20.944;2022-11-25T06:14:49;70.60;;;27.30;;
44440;SDS011;30146;52.268;20.944;2022-11-25T06:17:20;64.60;;;25.40;;
44440;SDS011;30146;52.268;20.944;2022-11-25T06:19:58;62.90;;;24.70;;
44440;SDS011;30146;52.268;20.944;2022-11-25T06:22:30;70.90;;;26.20;;
44440;SDS011;30146;52.268;20.944;2022-11-25T06:25:01;62.50;;;24.60;;
44440;SDS011;30146;52.268;20.944;2022-11-25T06:27:33;70.90;;;24.90;;
44440;SDS011;30146;52.268;20.944;2022-11-25T06:30:24;71.30;;;25.50;;
44440;SDS011;30146;52.268;20.944;2022-11-25T06:33:14;67.60;;;26.20;;
44440;SDS011;30146;52.268;20.944;2022-11-25T06:35:48;68.90;;;25.40;;
44440;SDS011;30146;52.268;20.944;2022-11-25T06:38:19;55.80;;;23.00;;
44440;SDS011;30146;52.268;20.944;2022-11-25T06:40:49;58.90;;;21.10;;
44440;SDS011;30146;52.268;20.944;2022-11-25T06:43:26;66.60;;;25.10;;
44440;SDS011;30146;52.268;20.944;2022-11-25T06:46:01;67.40;;;25.60;;
44440;SDS011;30146;52.268;20.944;2022-11-25T06:48:34;65.50;;;25.10;;
44440;SDS011;30146;52.268;20.944;2022-11-25T06:51:07;67.90;;;23.60;;
44440;SDS011;30146;52.268;20.944;2022-11-25T06:53:40;59.40;;;25.00;;
44440;SDS011;30146;52.268;20.944;2022-11-25T06:56:12;72.00;;;27.30;;
44440;SDS011;30146;52.268;20.944;2022-11-25T06:58:45;67.40;;;25.10;;
44440;SDS011;30146;52.268;20.944;2022-11-25T07:01:17;77.50;;;26.20;;
44440;SDS011;30146;52.268;20.944;2022-11-25T07:03:51;70.10;;;26.30;;
44440;SDS011;30146;52.268;20.944;2022-11-25T07:06:24;61.70;;;25.90;;
44440;SDS011;30146;52.268;20.944;2022-11-25T07:08:55;75.70;;;25.80;;
44440;SDS011;30146;52.268;20.944;2022-11-25T07:11:28;75.80;;;25.80;;
44440;SDS011;30146;52.268;20.944;2022-11-25T07:14:01;68.10;;;27.00;;
44440;SDS011;30146;52.268;20.944;2022-11-25T07:16:33;73.80;;;26.20;;
44440;SDS011;30146;52.268;20.944;2022-11-25T07:19:05;72.00;;;26.70;;
44440;SDS011;30146;52.268;20.944;2022-11-25T07:21:38;75.30;;;29.60;;
44440;SDS011;30146;52.268;20.944;2022-11-25T07:24:10;74.60;;;28.20;;
44440;SDS011;30146;52.268;20.944;2022-11-25T07:26:43;79.80;;;29.20;;
44440;SDS011;30146;52.268;20.944;2022-11-25T07:29:15;70.00;;;28.70;;
44440;SDS011;30146;52.268;20.944;2022-11-25T07:32:07;71.80;;;28.80;;
44440;SDS011;30146;52.268;20.944;2022-11-25T07:34:40;77.80;;;29.30;;
44440;SDS011;30146;52.268;20.944;2022-11-25T07:37:11;86.60;;;30.60;;
44440;SDS011;30146;52.268;20.944;2022-11-25T07:39:42;82.80;;;28.60;;
44440;SDS011;30146;52.268;20.944;2022-11-25T07:42:13;79.10;;;29.50;;
44440;SDS011;30146;52.268;20.944;2022-11-25T07:44:44;83.30;;;30.60;;
44440;SDS011;30146;52.268;20.944;2022-11-25T07:47:40;92.70;;;32.10;;
44440;SDS011;30146;52.268;20.944;2022-11-25T07:50:11;78.50;;;30.00;;
44440;SDS011;30146;52.268;20.944;2022-11-25T07:52:43;85.40;;;29.70;;
44440;SDS011;30146;52.268;20.944;2022-11-25T07:55:17;85.40;;;31.20;;
44440;SDS011;30146;52.268;20.944;2022-11-25T07:57:48;79.80;;;31.80;;
44440;SDS011;30146;52.268;20.944;2022-11-25T08:00:20;85.40;;;31.40;;
44440;SDS011;30146;52.268;20.944;2022-11-25T08:02:51;85.90;;;30.40;;
44440;SDS011;30146;52.268;20.944;2022-11-25T08:05:23;95.70;;;31.20;;
44440;SDS011;30146;52.268;20.944;2022-11-25T08:07:54;93.80;;;31.80;;
44440;SDS011;30146;52.268;20.944;2022-11-25T08:10:25;105.20;;;33.90;;
44440;SDS011;30146;52.268;20.944;2022-11-25T08:12:56;89.40;;;30.40;;
44440;SDS011;30146;52.268;20.944;2022-11-25T08:15:27;88.60;;;29.90;;
44440;SDS011;30146;52.268;20.944;2022-11-25T08:18:00;86.00;;;30.90;;
44440;SDS011;30146;52.268;20.944;2022-11-25T08:20:31;99.10;;;30.70;;
44440;SDS011;30146;52.268;20.944;2022-11-25T08:23:01;87.70;;;30.60;;
44440;SDS011;30146;52.268;20.944;2022-11-25T08:25:32;80.80;;;32.00;;
44440;SDS011;30146;52.268;20.944;2022-11-25T08:28:17;104.30;;;35.90;;
44440;SDS011;30146;52.268;20.944;2022-11-25T08:30:48;86.70;;;31.30;;
44440;SDS011;30146;52.268;20.944;2022-11-25T08:33:19;80.20;;;31.70;;
44440;SDS011;30146;52.268;20.944;2022-11-25T08:35:53;88.40;;;34.70;;
44440;SDS011;30146;52.268;20.944;2022-11-25T08:38:24;85.60;;;34.40;;
44440;SDS011;30146;52.268;20.944;2022-11-25T08:40:56;88.80;;;31.50;;
44440;SDS011;30146;52.268;20.944;2022-11-25T08:43:27;78.90;;;31.30;;
44440;SDS011;30146;52.268;20.944;2022-11-25T08:45:58;82.50;;;31.10;;
44440;SDS011;30146;52.268;20.944;2022-11-25T08:48:29;90.50;;;33.70;;
44440;SDS011;30146;52.268;20.944;2022-11-25T08:51:01;85.20;;;31.40;;
44440;SDS011;30146;52.268;20.944;2022-11-25T08:53:35;87.80;;;31.60;;
44440;SDS011;30146;52.268;20.944;2022-11-25T08:56:06;82.10;;;30.90;;
44440;SDS011;30146;52.268;20.944;2022-11-25T08:58:38;83.60;;;30.90;;
44440;SDS011;30146;52.268;20.944;2022-11-25T09:01:09;94.90;;;33.30;;
44440;SDS011;30146;52.268;20.944;2022-11-25T09:03:42;93.50;;;33.10;;
44440;SDS011;30146;52.268;20.944;2022-11-25T09:06:15;83.10;;;31.80;;
44440;SDS011;30146;52.268;20.944;2022-11-25T09:08:47;90.80;;;31.60;;
44440;SDS011;30146;52.268;20.944;2022-11-25T09:11:18;79.60;;;29.70;;
44440;SDS011;30146;52.268;20.944;2022-11-25T09:13:49;93.40;;;36.40;;
44440;SDS011;30146;52.268;20.944;2022-11-25T09:16:20;93.30;;;34.40;;
44440;SDS011;30146;52.268;20.944;2022-11-25T09:18:54;96.40;;;35.50;;
44440;SDS011;30146;52.268;20.944;2022-11-25T09:21:26;82.40;;;30.40;;
44440;SDS011;30146;52.268;20.944;2022-11-25T09:23:57;95.30;;;31.90;;
44440;SDS011;30146;52.268;20.944;2022-11-25T09:26:29;86.40;;;32.60;;
44440;SDS011;30146;52.268;20.944;2022-11-25T09:29:03;93.40;;;33.30;;
44440;SDS011;30146;52.268;20.944;2022-11-25T09:31:37;90.10;;;33.60;;
44440;SDS011;30146;52.268;20.944;2022-11-25T09:34:09;90.30;;;31.80;;
44440;SDS011;30146;52.268;20.944;2022-11-25T09:36:40;84.10;;;30.20;;
44440;SDS011;30146;52.268;20.944;2022-11-25T09:39:13;90.40;;;34.40;;
44440;SDS011;30146;52.268;20.944;2022-11-25T09:41:49;86.80;;;30.00;;
44440;SDS011;30146;52.268;20.944;2022-11-25T09:44:50;86.70;;;32.60;;
44440;SDS011;30146;52.268;20.944;2022-11-25T09:47:51;82.20;;;32.00;;
44440;SDS011;30146;52.268;20.944;2022-11-25T09:50:38;89.60;;;30.90;;
44440;SDS011;30146;52.268;20.944;2022-11-25T09:53:19;82.40;;;31.20;;
44440;SDS011;30146;52.268;20.944;2022-11-25T09:56:01;87.40;;;30.40;;
44440;SDS011;30146;52.268;20.944;2022-11-25T09:58:37;66.70;;;28.90;;
44440;SDS011;30146;52.268;20.944;2022-11-25T10:01:16;80.80;;;31.30;;
44440;SDS011;30146;52.268;20.944;2022-11-25T10:03:51;79.50;;;29.40;;
44440;SDS011;30146;52.268;20.944;2022-11-25T10:06:26;80.10;;;30.50;;
44440;SDS011;30146;52.268;20.944;2022-11-25T10:09:02;98.50;;;32.20;;
44440;SDS011;30146;52.268;20.944;2022-11-25T10:11:43;81.10;;;29.50;;
44440;SDS011;30146;52.268;20.944;2022-11-25T10:14:20;82.00;;;30.80;;
44440;SDS011;30146;52.268;20.944;2022-11-25T10:17:00;70.70;;;29.00;;
44440;SDS011;30146;52.268;20.944;2022-11-25T10:19:42;79.60;;;29.60;;
44440;SDS011;30146;52.268;20.944;2022-11-25T10:22:23;74.90;;;28.30;;
44440;SDS011;30146;52.268;20.944;2022-11-25T10:24:58;77.00;;;29.90;;
44440;SDS011;30146;52.268;20.944;2022-11-25T10:27:45;73.20;;;31.10;;
44440;SDS011;30146;52.268;20.944;2022-11-25T10:30:21;77.00;;;31.50;;
44440;SDS011;30146;52.268;20.944;2022-11-25T10:32:57;78.70;;;29.50;;
44440;SDS011;30146;52.268;20.944;2022-11-25T10:35:34;78.70;;;31.20;;
44440;SDS011;30146;52.268;20.944;2022-11-25T10:38:13;78.20;;;31.40;;
44440;SDS011;30146;52.268;20.944;2022-11-25T10:40:48;78.80;;;32.10;;
44440;SDS011;30146;52.268;20.944;2022-11-25T10:43:20;84.60;;;33.20;;
44440;SDS011;30146;52.268;20.944;2022-11-25T10:46:01;77.10;;;31.10;;
44440;SDS011;30146;52.268;20.944;2022-11-25T10:48:48;78.50;;;33.10;;
44440;SDS011;30146;52.268;20.944;2022-11-25T10:51:36;80.60;;;31.50;;
44440;SDS011;30146;52.268;20.944;2022-11-25T10:54:15;89.00;;;32.60;;
44440;SDS011;30146;52.268;20.944;2022-11-25T10:56:55;93.30;;;35.40;;
44440;SDS011;30146;52.268;20.944;2022-11-25T10:59:29;88.90;;;35.10;;
44440;SDS011;30146;52.268;20.944;2022-11-25T11:02:15;85.60;;;34.20;;
44440;SDS011;30146;52.268;20.944;2022-11-25T11:04:51;78.10;;;32.60;;
44440;SDS011;30146;52.268;20.944;2022-11-25T11:07:28;77.90;;;34.80;;
44440;SDS011;30146;52.268;20.944;2022-11-25T11:10:12;108.00;;;44.60;;
44440;SDS011;30146;52.268;20.944;2022-11-25T11:12:55;77.90;;;32.40;;
44440;SDS011;30146;52.268;20.944;2022-11-25T11:15:45;73.00;;;30.80;;
44440;SDS011;30146;52.268;20.944;2022-11-25T11:18:22;98.10;;;33.70;;
44440;SDS011;30146;52.268;20.944;2022-11-25T11:20:56;80.40;;;33.50;;
44440;SDS011;30146;52.268;20.944;2022-11-25T11:23:28;74.60;;;33.70;;
44440;SDS011;30146;52.268;20.944;2022-11-25T11:26:00;82.80;;;34.50;;
44440;SDS011;30146;52.268;20.944;2022-11-25T11:28:38;74.30;;;31.80;;
44440;SDS011;30146;52.268;20.944;2022-11-25T11:31:16;83.10;;;32.30;;
44440;SDS011;30146;52.268;20.944;2022-11-25T11:33:53;79.80;;;30.00;;
44440;SDS011;30146;52.268;20.944;2022-11-25T11:36:37;76.50;;;30.20;;
44440;SDS011;30146;52.268;20.944;2022-11-25T11:39:35;76.00;;;31.10;;
44440;SDS011;30146;52.268;20.944;2022-11-25T11:42:30;64.50;;;28.70;;
44440;SDS011;30146;52.268;20.944;2022-11-25T11:45:13;69.00;;;28.50;;
44440;SDS011;30146;52.268;20.944;2022-11-25T11:48:00;83.90;;;39.40;;
44440;SDS011;30146;52.268;20.944;2022-11-25T11:50:40;78.90;;;33.20;;
44440;SDS011;30146;52.268;20.944;2022-11-25T11:53:18;60.60;;;26.30;;
44440;SDS011;30146;52.268;20.944;2022-11-25T11:56:01;60.60;;;24.30;;
44440;SDS011;30146;52.268;20.944;2022-11-25T11:59:00;55.20;;;24.90;;
44440;SDS011;30146;52.268;20.944;2022-11-25T12:02:14;63.90;;;25.80;;
44440;SDS011;30146;52.268;20.944;2022-11-25T12:05:04;65.10;;;25.70;;
44440;SDS011;30146;52.268;20.944;2022-11-25T12:07:45;69.80;;;28.40;;
44440;SDS011;30146;52.268;20.944;2022-11-25T12:13:18;68.00;;;28.80;;
44440;SDS011;30146;52.268;20.944;2022-11-25T12:15:52;68.90;;;26.70;;
44440;SDS011;30146;52.268;20.944;2022-11-25T12:18:34;67.00;;;27.10;;
44440;SDS011;30146;52.268;20.944;2022-11-25T12:21:31;62.90;;;28.00;;
44440;SDS011;30146;52.268;20.944;2022-11-25T12:24:15;69.10;;;29.00;;
44440;SDS011;30146;52.268;20.944;2022-11-25T12:26:55;66.50;;;27.40;;
44440;SDS011;30146;52.268;20.944;2022-11-25T12:29:32;62.10;;;28.40;;
44440;SDS011;30146;52.268;20.944;2022-11-25T12:32:14;66.10;;;27.50;;
44440;SDS011;30146;52.268;20.944;2022-11-25T12:35:12;71.00;;;27.80;;
44440;SDS011;30146;52.268;20.944;2022-11-25T12:37:53;65.50;;;26.70;;
44440;SDS011;30146;52.268;20.944;2022-11-25T12:40:32;80.00;;;31.30;;
44440;SDS011;30146;52.268;20.944;2022-11-25T12:43:15;68.90;;;28.00;;
44440;SDS011;30146;52.268;20.944;2022-11-25T12:45:57;67.50;;;28.90;;
44440;SDS011;30146;52.268;20.944;2022-11-25T12:48:36;75.80;;;29.20;;
44440;SDS011;30146;52.268;20.944;2022-11-25T12:51:13;72.60;;;30.70;;
44440;SDS011;30146;52.268;20.944;2022-11-25T12:53:56;81.00;;;32.30;;
44440;SDS011;30146;52.268;20.944;2022-11-25T12:56:37;63.50;;;25.20;;
44440;SDS011;30146;52.268;20.944;2022-11-25T12:59:26;67.90;;;27.20;;
44440;SDS011;30146;52.268;20.944;2022-11-25T13:02:18;71.40;;;30.60;;
44440;SDS011;30146;52.268;20.944;2022-11-25T13:05:09;70.50;;;26.90;;
44440;SDS011;30146;52.268;20.944;2022-11-25T13:08:10;57.70;;;24.90;;
44440;SDS011;30146;52.268;20.944;2022-11-25T13:10:55;85.60;;;33.20;;
44440;SDS011;30146;52.268;20.944;2022-11-25T13:13:51;82.40;;;31.10;;
44440;SDS011;30146;52.268;20.944;2022-11-25T13:16:29;90.50;;;33.10;;
44440;SDS011;30146;52.268;20.944;2022-11-25T13:19:02;75.20;;;29.80;;
44440;SDS011;30146;52.268;20.944;2022-11-25T13:24:37;75.30;;;28.60;;
44440;SDS011;30146;52.268;20.944;2022-11-25T13:27:15;78.10;;;31.80;;
44440;SDS011;30146;52.268;20.944;2022-11-25T13:30:00;101.60;;;33.70;;
44440;SDS011;30146;52.268;20.944;2022-11-25T13:32:36;87.30;;;31.10;;
44440;SDS011;30146;52.268;20.944;2022-11-25T13:41:23;86.40;;;33.30;;
44440;SDS011;30146;52.268;20.944;2022-11-25T13:44:13;87.10;;;31.70;;
44440;SDS011;30146;52.268;20.944;2022-11-25T13:47:00;86.50;;;33.40;;
44440;SDS011;30146;52.268;20.944;2022-11-25T13:50:04;78.30;;;31.30;;
44440;SDS011;30146;52.268;20.944;2022-11-25T13:52:55;85.30;;;32.80;;
44440;SDS011;30146;52.268;20.944;2022-11-25T13:55:32;92.60;;;34.10;;
44440;SDS011;30146;52.268;20.944;2022-11-25T13:58:20;77.50;;;31.60;;
44440;SDS011;30146;52.268;20.944;2022-11-25T14:01:09;81.20;;;33.40;;
44440;SDS011;30146;52.268;20.944;2022-11-25T14:03:57;90.00;;;33.90;;
44440;SDS011;30146;52.268;20.944;2022-11-25T14:06:54;81.10;;;33.50;;
44440;SDS011;30146;52.268;20.944;2022-11-25T14:09:51;81.10;;;33.90;;
44440;SDS011;30146;52.268;20.944;2022-11-25T14:12:40;76.10;;;32.60;;
44440;SDS011;30146;52.268;20.944;2022-11-25T14:15:26;87.60;;;33.70;;
44440;SDS011;30146;52.268;20.944;2022-11-25T14:21:39;72.70;;;31.50;;
44440;SDS011;30146;52.268;20.944;2022-11-25T14:24:21;76.80;;;29.00;;
44440;SDS011;30146;52.268;20.944;2022-11-25T14:27:10;76.90;;;32.40;;
44440;SDS011;30146;52.268;20.944;2022-11-25T14:29:49;75.70;;;29.40;;
44440;SDS011;30146;52.268;20.944;2022-11-25T14:32:26;75.70;;;30.80;;
44440;SDS011;30146;52.268;20.944;2022-11-25T14:35:02;72.90;;;30.20;;
44440;SDS011;30146;52.268;20.944;2022-11-25T14:37:38;72.20;;;30.90;;
44440;SDS011;30146;52.268;20.944;2022-11-25T14:40:16;77.60;;;31.50;;
44440;SDS011;30146;52.268;20.944;2022-11-25T14:42:50;69.70;;;28.20;;
44440;SDS011;30146;52.268;20.944;2022-11-25T14:45:27;75.30;;;30.60;;
44440;SDS011;30146;52.268;20.944;2022-11-25T14:48:12;74.60;;;32.10;;
44440;SDS011;30146;52.268;20.944;2022-11-25T14:50:55;71.40;;;31.00;;
44440;SDS011;30146;52.268;20.944;2022-11-25T14:53:27;69.00;;;31.00;;
44440;SDS011;30146;52.268;20.944;2022-11-25T14:56:13;69.50;;;28.50;;
44440;SDS011;30146;52.268;20.944;2022-11-25T14:58:51;64.90;;;28.50;;
44440;SDS011;30146;52.268;20.944;2022-11-25T15:01:24;71.70;;;30.80;;
44440;SDS011;30146;52.268;20.944;2022-11-25T15:04:04;73.90;;;28.90;;
44440;SDS011;30146;52.268;20.944;2022-11-25T15:06:48;83.00;;;35.60;;
44440;SDS011;30146;52.268;20.944;2022-11-25T15:09:22;70.10;;;33.50;;
44440;SDS011;30146;52.268;20.944;2022-11-25T15:11:59;75.90;;;32.20;;
44440;SDS011;30146;52.268;20.944;2022-11-25T15:14:35;71.20;;;32.30;;
44440;SDS011;30146;52.268;20.944;2022-11-25T15:17:15;69.10;;;30.90;;
44440;SDS011;30146;52.268;20.944;2022-11-25T15:19:58;78.40;;;33.50;;
44440;SDS011;30146;52.268;20.944;2022-11-25T15:22:43;75.30;;;30.90;;
44440;SDS011;30146;52.268;20.944;2022-11-25T15:28:18;65.70;;;28.20;;
44440;SDS011;30146;52.268;20.944;2022-11-25T15:31:08;70.60;;;30.30;;